Flight Track Log - Related Links

Times and Time Zones

All times are in EST time to prevent confusion due to time zone crossing. See the BJS339 flight status page for this flight to view local times or setup timezone preferences in your user account.

Time Position Orientation Groundspeed Altitude Reporting Facility
EST Latitude Longitude Course Direction KTS MPH feet Rate Location/Type
Tue 12:53:21 PM 47.2297 -123.5364 180° South 446 513 33,700  Level Seattle Center
Tue 12:54:22 PM 47.1075 -123.5314 178° South 443 510 34,600 1,082 Climbing Seattle Center
Tue 12:55:23 PM 46.9600 -123.5225 178° South 444 511 35,900 1,033 Climbing Seattle Center
Tue 12:56:24 PM 46.8389 -123.5172 178° South 440 506 36,700 984 Climbing Seattle Center
Tue 12:57:25 PM 46.7183 -123.5100 178° South 436 502 37,900 843 Climbing Seattle Center
Tue 12:58:00 PM 46.2650 -123.4833 180° South  Level FlightAware Approximate
Tue 12:58:25 PM 46.6011 -123.5092 180° South 425 489 38,400  Level Seattle Center
Tue 12:59:26 PM 46.4803 -123.5019 178° South 433 498 38,900 295 Climbing Seattle Center
Tue 01:00:27 PM 46.3536 -123.4972 179° South 439 505 39,000 49 Climbing Seattle Center
Tue 01:01:28 PM 46.2283 -123.4894 178° South 450 518 39,000  Level Seattle Center
Tue 01:02:29 PM 46.0983 -123.4853 179° South 463 533 39,000  Level Seattle Center
Tue 01:03:30 PM 45.9667 -123.4789 178° South 471 542 39,000  Level Seattle Center
Tue 01:04:31 PM 45.8342 -123.4722 178° South 475 547 39,000  Level Seattle Center
Tue 01:05:32 PM 45.7006 -123.4653 178° South 479 551 39,000  Level Seattle Center
Tue 01:06:33 PM 45.5678 -123.4586 178° South 476 548 39,000  Level Seattle Center
Tue 01:07:34 PM 45.4344 -123.4522 178° South 477 549 39,000  Level Seattle Center
Tue 01:08:35 PM 45.3008 -123.4453 178° South 479 551 39,000  Level Seattle Center
Tue 01:09:35 PM 45.1678 -123.4389 178° South 476 548 39,000  Level Seattle Center
Tue 01:10:36 PM 45.0339 -123.4317 178° South 476 548 39,000  Level Seattle Center
Tue 01:11:37 PM 44.8961 -123.4261 178° South 474 545 39,000  Level Seattle Center
Tue 01:12:38 PM 44.7603 -123.4200 178° South 474 545 39,000  Level Seattle Center
Tue 01:13:39 PM 44.6278 -123.4139 178° South 476 548 39,000  Level Seattle Center
Tue 01:14:40 PM 44.4936 -123.4078 178° South 481 554 39,000  Level Seattle Center
Tue 01:15:41 PM 44.3611 -123.4025 178° South 480 552 39,000  Level Seattle Center
Tue 01:16:42 PM 44.2267 -123.3961 178° South 485 558 39,000  Level Seattle Center
Tue 01:17:43 PM 44.0683 -123.3911 179° South 476 548 39,000  Level Seattle Center
Tue 01:18:44 PM 43.9397 -123.3839 178° South 474 545 39,000  Level Seattle Center
Tue 01:19:45 PM 43.8078 -123.3781 178° South 475 547 39,000  Level Seattle Center
Tue 01:20:46 PM 43.6756 -123.3717 178° South 475 547 39,000  Level Seattle Center
Tue 01:21:47 PM 43.5428 -123.3656 178° South 477 549 39,000  Level Seattle Center
Tue 01:22:48 PM 43.4089 -123.3625 179° South 479 551 39,000  Level Seattle Center
Tue 01:23:49 PM 43.2756 -123.3556 178° South 480 552 39,000  Level Seattle Center
Tue 01:24:50 PM 43.1417 -123.3500 178° South 480 552 39,000  Level Seattle Center
Tue 01:25:51 PM 43.0083 -123.3481 179° South 478 550 39,000  Level Seattle Center
Tue 01:26:51 PM 42.8722 -123.3469 180° South 486 559 39,000  Level Seattle Center
Tue 01:27:52 PM 42.7094 -123.3431 179° South 487 560 39,000  Level Seattle Center
Tue 01:28:53 PM 42.5831 -123.3392 179° South 485 558 39,000  Level Seattle Center
Tue 01:29:54 PM 42.4497 -123.3372 179° South 482 555 39,000  Level Seattle Center
Tue 01:30:55 PM 42.3172 -123.3347 179° South 479 551 39,000  Level Seattle Center
Tue 01:31:56 PM 42.1836 -123.3319 179° South 482 555 39,000  Level Seattle Center
Tue 01:32:57 PM 42.0494 -123.3297 179° South 484 557 39,000  Level Seattle Center
Tue 01:33:58 PM 41.9153 -123.3256 179° South 484 557 39,000  Level Seattle Center
Tue 01:34:59 PM 41.7828 -123.3097 175° South 482 555 39,000  Level Seattle Center
Tue 01:36:00 PM 41.6261 -123.2919 175° South 474 545 39,000  Level Seattle Center
Tue 01:36:46 PM 41.5497 -123.2825 175° South 475 547 39,000  Level Oakland Center
Tue 01:37:47 PM 41.3903 -123.2633 175° South 481 554 39,000  Level Oakland Center
Tue 01:38:48 PM 41.2733 -123.2492 175° South 480 552 39,000 -148 Level Oakland Center
Tue 01:39:49 PM 41.1394 -123.2339 175° South 482 555 38,700 -683 Descending Oakland Center
Tue 01:40:51 PM 41.0019 -123.2158 174° South 483 556 37,600 -829 Descending Oakland Center
Tue 01:41:52 PM 40.8672 -123.1992 175° South 486 559 37,000 -295 Descending Oakland Center
Tue 01:42:53 PM 40.7156 -123.1817 175° South 475 547 37,000  Level Oakland Center
Tue 01:43:54 PM 40.5817 -123.1650 175° South 483 556 37,000  Level Oakland Center
Tue 01:44:55 PM 40.4464 -123.1486 175° South 489 563 37,000  Level Oakland Center
Tue 01:45:57 PM 40.3125 -123.1325 175° South 487 560 37,000  Level Oakland Center
Tue 01:46:58 PM 40.1803 -123.1153 174° South 482 555 37,000  Level Oakland Center
Tue 01:47:59 PM 40.0475 -123.1000 175° South 482 555 37,000  Level Oakland Center
Tue 01:49:00 PM 39.8900 -123.0819 175° South 477 549 37,000  Level Oakland Center
Tue 01:50:02 PM 39.7578 -123.0661 175° South 479 551 37,000  Level Oakland Center
Tue 01:51:03 PM 39.6264 -123.0503 175° South 479 551 37,000  Level Oakland Center
Tue 01:52:04 PM 39.4942 -123.0336 174° South 479 551 37,000  Level Oakland Center
Tue 01:53:05 PM 39.3522 -123.0158 174° South 474 545 37,000  Level Oakland Center
Tue 01:54:07 PM 39.2200 -123.0003 175° South 476 548 37,000 -341 Level Oakland Center
Tue 01:55:08 PM 39.0875 -122.9847 175° South 479 551 36,300 -836 Descending Oakland Center
Tue 01:56:09 PM 38.9556 -122.9697 175° South 478 550 35,300 -976 Descending Oakland Center
Tue 01:57:11 PM 38.8247 -122.9531 174° South 475 547 34,300 -1,171 Descending Oakland Center
Tue 01:58:12 PM 38.6900 -122.9392 175° South 483 556 32,900 -1,574 Descending Oakland Center
Tue 01:59:13 PM 38.5525 -122.9239 175° South 495 570 31,100 -2,000 Descending Oakland Center
Tue 02:00:15 PM 38.4164 -122.9081 175° South 493 567 28,800 -2,585 Descending Oakland Center
Tue 02:01:16 PM 38.2556 -122.8897 175° South 486 559 25,800 -2,361 Descending Oakland Center
Tue 02:02:17 PM 38.1289 -122.8756 175° South 467 537 24,000 -2,000 Descending Oakland Center
Tue 02:03:19 PM 38.0169 -122.8006 152° Southeast 478 550 21,700 -2,634 Descending Oakland Center
Tue 02:04:20 PM 37.9183 -122.6953 140° Southeast 473 544 18,600 -2,803 Descending Oakland Center
Tue 02:05:21 PM 37.8258 -122.5975 140° Southeast 461 531 16,000 -2,852 Descending Oakland Center
Tue 02:06:22 PM 37.7194 -122.4814 139° Southeast 435 501 12,800 -1,951 Descending Oakland Center
Tue 02:07:24 PM 37.6336 -122.3897 140° Southeast 411 473 12,000 -390 Descending Oakland Center
Tue 02:08:25 PM 37.5444 -122.2964 140° Southeast 417 480 12,000 -49 Level Oakland Center
Tue 02:09:27 PM 37.4522 -122.2431 155° Southeast 356 410 11,900 -537 Descending Oakland Center
Tue 02:10:28 PM 37.3800 -122.2006 155° Southeast 293 337 10,900 -1,377 Descending Oakland Center
Tue 02:11:29 PM 37.3281 -122.1331 134° Southeast 275 316 9,100 -1,854 Descending Oakland Center
Tue 02:12:31 PM 37.2836 -122.0553 126° Southeast 275 316 7,100 -1,756 Descending Oakland Center
Tue 02:13:32 PM 37.2397 -121.9797 126° Southeast 272 313 5,500 -976 Descending Oakland Center
Tue 02:14:34 PM 37.2336 -121.9047 96° East 200 230 5,100 -732 Descending Oakland Center
Tue 02:15:35 PM 37.2592 -121.8517 59° Northeast 186 214 4,000 -1,561 Descending Oakland Center
Tue 02:16:37 PM 37.2950 -121.8586 351° North 156 180 1,900 -1,463 Descending Oakland Center
Tue 02:17:38 PM 37.3261 -121.8858 325° Northwest 143 165 1,000 -836 Descending Oakland Center
Tue 02:18:39 PM 37.3514 -121.9167 316° Northwest 134 154 200 -787 Descending Oakland Center

Login

Don't have an account? Register now (free) for customized features, flight alerts, and more!